RUNWAY INFORMATION
Runway Length Width Elevation Displaced
Threshold
Heading | Runway Length Width Elevation Displaced
Threshold
Heading
10 4948 ft 98 ft 16 ft 358 ft 93 | 28 4948 ft 98 ft 19 ft 211 ft 273

 AIRPORT FREQUENCIES
Type APP Name APP Frequency 132.7 MHZ
Type ATIS Name ATIS Frequency 136.35 MHZ
Type GND Name GND Frequency 121.825 MHZ
Type TWR Name TWR Frequency 118.075 MHZ

 AIRPORT NEAR NAVIGATION AIDS
Type NDB Name City Frequency 322 KHZ

 METAR AND TAF INFORMATION
METAR FOR EGLC
ADDS - METARS form results

(1243 UTC 01 August 2021)
Data provider http://aviationweather.gov/metar/data/
 
METAR text: EGLC 011220Z AUTO 25005KT 190V320 9999 FEW044/// //////CB 20/13 Q1011
Conditions at: EGLC (LONDON CITY AIRP, GB) observed 1220 UTC 01 August 2021
Temperature: 20.0°C (68°F)
Dewpoint: 13.0°C (55°F) [RH = 64%]
Pressure (altimeter): 29.85 inches Hg (1011.0 mb)
Winds: from the WSW (250 degrees) at 6 MPH (5 knots; 2.6 m/s)
Visibility: 6 or more miles (10+ km)
Ceiling: at least 12,000 feet AGL
Clouds: few clouds at 4400 feet AGL
Weather: no significant weather observed at this time

METAR text: EGLC 011150Z AUTO 24006KT 9999 BKN038/// //////TCU 19/14 Q1011
Conditions at: EGLC (LONDON CITY AIRP, GB) observed 1150 UTC 01 August 2021
Temperature: 19.0°C (66°F)
Dewpoint: 14.0°C (57°F) [RH = 73%]
Pressure (altimeter): 29.85 inches Hg (1011.0 mb)
Winds: from the WSW (240 degrees) at 7 MPH (6 knots; 3.1 m/s)
Visibility: 6 or more miles (10+ km)
Ceiling: 3800 feet AGL
Clouds: broken clouds at 3800 feet AGL
Weather: no significant weather observed at this time

Forecast for: EGLC (LONDON CITY AIRP, GB)
Text: TAF EGLC 011104Z 0112/0121 28005KT 9999 SCT030
Forecast period: 1200 to 2100 UTC 01 August 2021
Forecast type: FROM: standard forecast or significant change
Winds: from the W (280 degrees) at 6 MPH (5 knots; 2.6 m/s)
Visibility: 6 or more miles (10+ km)
Ceiling: at least 12,000 feet AGL
Clouds: scattered clouds at 3000 feet AGL
Weather: no significant weather forecast for this period
Text: PROB30
Forecast period: 1200 to 2100 UTC 01 August 2021
Forecast type: TEMPORARY: The following changes expected for less than half the time period
Visibility: 2.49 miles (4.01 km)
Ceiling: unknown
Clouds: missing
Weather: +SHRA RA DZ  (heavy rain showers, moderate rain, moderate drizzle)



© 2013 - 2021, FlightSimLog.org - Powered by Virtual Airlines Manager